sensor_id;sensor_type;location;lat;lon;timestamp;pressure;altitude;pressure_sealevel;temperature;humidity
66742;BME280;53654;54.152;19.432;2022-07-18T00:00:04;102271.27;;;12.49;79.72
66742;BME280;53654;54.152;19.432;2022-07-18T00:02:54;102272.14;;;12.47;79.73
66742;BME280;53654;54.152;19.432;2022-07-18T00:05:22;102267.73;;;12.45;79.83
66742;BME280;53654;54.152;19.432;2022-07-18T00:07:50;102272.80;;;12.45;80.11
66742;BME280;53654;54.152;19.432;2022-07-18T00:10:18;102273.84;;;12.43;79.98
66742;BME280;53654;54.152;19.432;2022-07-18T00:12:46;102272.27;;;12.42;80.19
66742;BME280;53654;54.152;19.432;2022-07-18T00:15:14;102270.85;;;12.40;80.18
66742;BME280;53654;54.152;19.432;2022-07-18T00:17:42;102272.25;;;12.39;80.46
66742;BME280;53654;54.152;19.432;2022-07-18T00:20:11;102276.42;;;12.37;80.59
66742;BME280;53654;54.152;19.432;2022-07-18T00:22:39;102276.41;;;12.36;80.81
66742;BME280;53654;54.152;19.432;2022-07-18T00:25:07;102277.27;;;12.34;80.92
66742;BME280;53654;54.152;19.432;2022-07-18T00:27:35;102270.09;;;12.33;81.18
66742;BME280;53654;54.152;19.432;2022-07-18T00:30:04;102267.29;;;12.32;81.20
66742;BME280;53654;54.152;19.432;2022-07-18T00:32:32;102265.34;;;12.30;81.23
66742;BME280;53654;54.152;19.432;2022-07-18T00:35:00;102269.36;;;12.30;81.35
66742;BME280;53654;54.152;19.432;2022-07-18T00:37:28;102260.95;;;12.28;81.54
66742;BME280;53654;54.152;19.432;2022-07-18T00:39:57;102263.92;;;12.29;81.50
66742;BME280;53654;54.152;19.432;2022-07-18T00:42:25;102262.52;;;12.27;81.47
66742;BME280;53654;54.152;19.432;2022-07-18T00:44:54;102260.58;;;12.26;81.40
66742;BME280;53654;54.152;19.432;2022-07-18T00:47:23;102260.05;;;12.24;81.44
66742;BME280;53654;54.152;19.432;2022-07-18T00:49:51;102256.71;;;12.24;81.67
66742;BME280;53654;54.152;19.432;2022-07-18T00:52:19;102256.54;;;12.23;81.57
66742;BME280;53654;54.152;19.432;2022-07-18T00:54:47;102256.70;;;12.23;81.65
66742;BME280;53654;54.152;19.432;2022-07-18T00:57:15;102259.48;;;12.21;81.61
66742;BME280;53654;54.152;19.432;2022-07-18T00:59:44;102262.10;;;12.20;81.81
66742;BME280;53654;54.152;19.432;2022-07-18T01:02:31;102264.70;;;12.16;81.69
66742;BME280;53654;54.152;19.432;2022-07-18T01:04:59;102258.39;;;12.15;82.00
66742;BME280;53654;54.152;19.432;2022-07-18T01:07:27;102265.38;;;12.14;81.97
66742;BME280;53654;54.152;19.432;2022-07-18T01:13:10;102257.83;;;12.11;82.21
66742;BME280;53654;54.152;19.432;2022-07-18T01:15:39;102262.36;;;12.10;82.43
66742;BME280;53654;54.152;19.432;2022-07-18T01:18:07;102266.21;;;12.10;82.30
66742;BME280;53654;54.152;19.432;2022-07-18T01:20:35;102262.73;;;12.10;82.48
66742;BME280;53654;54.152;19.432;2022-07-18T01:23:04;102263.59;;;12.10;82.65
66742;BME280;53654;54.152;19.432;2022-07-18T01:25:32;102262.90;;;12.11;82.55
66742;BME280;53654;54.152;19.432;2022-07-18T01:28:01;102264.45;;;12.09;82.53
66742;BME280;53654;54.152;19.432;2022-07-18T01:30:29;102263.91;;;12.08;82.69
66742;BME280;53654;54.152;19.432;2022-07-18T01:33:00;102261.12;;;12.08;82.91
66742;BME280;53654;54.152;19.432;2022-07-18T01:35:30;102259.20;;;12.08;83.05
66742;BME280;53654;54.152;19.432;2022-07-18T01:38:00;102257.09;;;12.07;83.08
66742;BME280;53654;54.152;19.432;2022-07-18T01:40:29;102253.92;;;12.06;83.11
66742;BME280;53654;54.152;19.432;2022-07-18T01:42:57;102253.22;;;12.05;83.23
66742;BME280;53654;54.152;19.432;2022-07-18T01:45:25;102250.57;;;12.02;83.15
66742;BME280;53654;54.152;19.432;2022-07-18T01:47:53;102246.89;;;12.01;83.38
66742;BME280;53654;54.152;19.432;2022-07-18T01:50:22;102247.58;;;12.00;83.69
66742;BME280;53654;54.152;19.432;2022-07-18T01:52:50;102250.20;;;12.00;83.61
66742;BME280;53654;54.152;19.432;2022-07-18T01:55:18;102248.80;;;12.01;83.67
66742;BME280;53654;54.152;19.432;2022-07-18T01:57:46;102245.64;;;11.99;83.71
66742;BME280;53654;54.152;19.432;2022-07-18T02:00:14;102239.85;;;11.97;83.93
66742;BME280;53654;54.152;19.432;2022-07-18T02:02:42;102238.95;;;11.94;84.01
66742;BME280;53654;54.152;19.432;2022-07-18T02:05:11;102235.80;;;11.93;84.26
66742;BME280;53654;54.152;19.432;2022-07-18T02:07:40;102238.75;;;11.91;84.39
66742;BME280;53654;54.152;19.432;2022-07-18T02:10:15;102234.86;;;11.88;84.45
66742;BME280;53654;54.152;19.432;2022-07-18T02:12:43;102233.27;;;11.86;84.79
66742;BME280;53654;54.152;19.432;2022-07-18T02:15:13;102231.49;;;11.82;84.84
66742;BME280;53654;54.152;19.432;2022-07-18T02:17:41;102234.83;;;11.84;84.93
66742;BME280;53654;54.152;19.432;2022-07-18T02:20:11;102235.02;;;11.85;85.09
66742;BME280;53654;54.152;19.432;2022-07-18T02:22:40;102233.78;;;11.84;85.24
66742;BME280;53654;54.152;19.432;2022-07-18T02:25:09;102229.40;;;11.83;85.44
66742;BME280;53654;54.152;19.432;2022-07-18T02:27:37;102226.77;;;11.83;85.67
66742;BME280;53654;54.152;19.432;2022-07-18T02:30:07;102231.30;;;11.81;85.65
66742;BME280;53654;54.152;19.432;2022-07-18T02:32:36;102230.77;;;11.80;85.77
66742;BME280;53654;54.152;19.432;2022-07-18T02:35:07;102230.75;;;11.78;86.05
66742;BME280;53654;54.152;19.432;2022-07-18T02:37:36;102225.15;;;11.78;86.11
66742;BME280;53654;54.152;19.432;2022-07-18T02:40:07;102224.27;;;11.78;86.14
66742;BME280;53654;54.152;19.432;2022-07-18T02:42:36;102225.13;;;11.77;86.30
66742;BME280;53654;54.152;19.432;2022-07-18T02:45:05;102225.11;;;11.76;86.41
66742;BME280;53654;54.152;19.432;2022-07-18T02:47:34;102226.13;;;11.74;86.49
66742;BME280;53654;54.152;19.432;2022-07-18T02:50:03;102226.12;;;11.73;86.61
66742;BME280;53654;54.152;19.432;2022-07-18T02:52:32;102223.13;;;11.71;86.94
66742;BME280;53654;54.152;19.432;2022-07-18T02:55:00;102222.78;;;11.71;87.05
66742;BME280;53654;54.152;19.432;2022-07-18T02:57:29;102223.83;;;11.71;87.26
66742;BME280;53654;54.152;19.432;2022-07-18T02:59:57;102222.61;;;11.72;87.48
66742;BME280;53654;54.152;19.432;2022-07-18T03:02:25;102220.88;;;11.73;87.62
66742;BME280;53654;54.152;19.432;2022-07-18T03:04:53;102219.30;;;11.73;87.65
66742;BME280;53654;54.152;19.432;2022-07-18T03:07:22;102220.55;;;11.75;87.73
66742;BME280;53654;54.152;19.432;2022-07-18T03:09:50;102214.27;;;11.76;87.88
66742;BME280;53654;54.152;19.432;2022-07-18T03:12:19;102219.20;;;11.78;87.99
66742;BME280;53654;54.152;19.432;2022-07-18T03:14:47;102221.49;;;11.79;88.03
66742;BME280;53654;54.152;19.432;2022-07-18T03:17:15;102221.84;;;11.79;88.09
66742;BME280;53654;54.152;19.432;2022-07-18T03:19:44;102220.11;;;11.80;88.21
66742;BME280;53654;54.152;19.432;2022-07-18T03:22:12;102215.75;;;11.82;88.37
66742;BME280;53654;54.152;19.432;2022-07-18T03:24:40;102216.48;;;11.84;88.38
66742;BME280;53654;54.152;19.432;2022-07-18T03:27:08;102219.68;;;11.90;88.69
66742;BME280;53654;54.152;19.432;2022-07-18T03:29:36;102224.44;;;11.94;88.46
66742;BME280;53654;54.152;19.432;2022-07-18T03:32:04;102221.16;;;12.00;88.55
66742;BME280;53654;54.152;19.432;2022-07-18T03:34:33;102227.35;;;12.06;88.60
66742;BME280;53654;54.152;19.432;2022-07-18T03:37:01;102227.04;;;12.12;88.55
66742;BME280;53654;54.152;19.432;2022-07-18T03:39:29;102231.11;;;12.17;88.82
66742;BME280;53654;54.152;19.432;2022-07-18T03:41:57;102230.81;;;12.22;88.80
66742;BME280;53654;54.152;19.432;2022-07-18T03:44:25;102227.55;;;12.30;88.94
66742;BME280;53654;54.152;19.432;2022-07-18T03:46:53;102225.15;;;12.37;88.78
66742;BME280;53654;54.152;19.432;2022-07-18T03:49:21;102230.08;;;12.42;88.62
66742;BME280;53654;54.152;19.432;2022-07-18T03:51:50;102228.54;;;12.45;88.53
66742;BME280;53654;54.152;19.432;2022-07-18T03:54:18;102231.70;;;12.47;88.23
66742;BME280;53654;54.152;19.432;2022-07-18T03:56:46;102230.84;;;12.50;88.23
66742;BME280;53654;54.152;19.432;2022-07-18T03:59:14;102232.44;;;12.52;87.97
66742;BME280;53654;54.152;19.432;2022-07-18T04:01:42;102232.30;;;12.56;88.15
66742;BME280;53654;54.152;19.432;2022-07-18T04:04:10;102230.23;;;12.61;87.97
66742;BME280;53654;54.152;19.432;2022-07-18T04:06:39;102232.35;;;12.64;87.89
66742;BME280;53654;54.152;19.432;2022-07-18T04:09:07;102231.16;;;12.70;87.96
66742;BME280;53654;54.152;19.432;2022-07-18T04:11:36;102232.23;;;12.74;87.87
66742;BME280;53654;54.152;19.432;2022-07-18T04:14:04;102232.08;;;12.77;87.80
66742;BME280;53654;54.152;19.432;2022-07-18T04:16:33;102223.35;;;12.82;87.73
66742;BME280;53654;54.152;19.432;2022-07-18T04:19:01;102222.86;;;12.89;87.79
66742;BME280;53654;54.152;19.432;2022-07-18T04:21:30;102226.40;;;12.96;87.63
66742;BME280;53654;54.152;19.432;2022-07-18T04:23:58;102223.28;;;13.04;87.50
66742;BME280;53654;54.152;19.432;2022-07-18T04:26:26;102229.48;;;13.14;87.40
66742;BME280;53654;54.152;19.432;2022-07-18T04:28:54;102230.59;;;13.24;87.02
66742;BME280;53654;54.152;19.432;2022-07-18T04:31:22;102234.84;;;13.34;86.91
66742;BME280;53654;54.152;19.432;2022-07-18T04:33:51;102236.29;;;13.50;86.94
66742;BME280;53654;54.152;19.432;2022-07-18T04:36:19;102232.67;;;13.73;86.61
66742;BME280;53654;54.152;19.432;2022-07-18T04:38:47;102230.44;;;14.07;86.11
66742;BME280;53654;54.152;19.432;2022-07-18T04:41:15;102229.56;;;14.46;85.26
66742;BME280;53654;54.152;19.432;2022-07-18T04:43:45;102225.98;;;14.88;84.40
66742;BME280;53654;54.152;19.432;2022-07-18T04:46:13;102226.36;;;15.30;83.10
66742;BME280;53654;54.152;19.432;2022-07-18T04:48:41;102217.97;;;15.60;81.65
66742;BME280;53654;54.152;19.432;2022-07-18T04:51:09;102223.09;;;15.89;80.16
66742;BME280;53654;54.152;19.432;2022-07-18T04:53:37;102221.88;;;16.09;79.26
66742;BME280;53654;54.152;19.432;2022-07-18T04:56:06;102219.47;;;16.24;78.64
66742;BME280;53654;54.152;19.432;2022-07-18T04:58:34;102217.45;;;16.34;77.75
66742;BME280;53654;54.152;19.432;2022-07-18T05:01:02;102219.18;;;16.37;77.06
66742;BME280;53654;54.152;19.432;2022-07-18T05:03:30;102218.98;;;16.39;76.81
66742;BME280;53654;54.152;19.432;2022-07-18T05:05:58;102220.85;;;16.47;76.40
66742;BME280;53654;54.152;19.432;2022-07-18T05:08:26;102221.84;;;16.53;75.97
66742;BME280;53654;54.152;19.432;2022-07-18T05:10:55;102221.36;;;16.48;75.83
66742;BME280;53654;54.152;19.432;2022-07-18T05:13:23;102223.62;;;16.33;75.74
66742;BME280;53654;54.152;19.432;2022-07-18T05:15:51;102224.84;;;16.14;76.03
66742;BME280;53654;54.152;19.432;2022-07-18T05:18:19;102224.77;;;16.00;76.47
66742;BME280;53654;54.152;19.432;2022-07-18T05:20:47;102225.92;;;15.88;76.91
66742;BME280;53654;54.152;19.432;2022-07-18T05:23:16;102220.36;;;15.77;77.30
66742;BME280;53654;54.152;19.432;2022-07-18T05:25:44;102217.42;;;15.68;77.87
66742;BME280;53654;54.152;19.432;2022-07-18T05:28:12;102220.06;;;15.69;78.31
66742;BME280;53654;54.152;19.432;2022-07-18T05:30:41;102225.06;;;15.84;78.51
66742;BME280;53654;54.152;19.432;2022-07-18T05:33:09;102229.91;;;16.17;78.45
66742;BME280;53654;54.152;19.432;2022-07-18T05:35:37;102230.05;;;16.62;78.04
66742;BME280;53654;54.152;19.432;2022-07-18T05:38:05;102230.81;;;17.06;77.15
66742;BME280;53654;54.152;19.432;2022-07-18T05:40:34;102240.03;;;17.31;76.17
66742;BME280;53654;54.152;19.432;2022-07-18T05:43:02;102235.98;;;17.57;75.53
66742;BME280;53654;54.152;19.432;2022-07-18T05:45:30;102234.09;;;17.80;75.11
66742;BME280;53654;54.152;19.432;2022-07-18T05:47:58;102229.73;;;17.99;74.42
66742;BME280;53654;54.152;19.432;2022-07-18T05:50:27;102229.73;;;18.21;73.88
66742;BME280;53654;54.152;19.432;2022-07-18T05:52:55;102230.95;;;18.43;73.77
66742;BME280;53654;54.152;19.432;2022-07-18T05:55:23;102231.09;;;18.55;73.10
66742;BME280;53654;54.152;19.432;2022-07-18T05:57:51;102227.38;;;18.55;72.66
66742;BME280;53654;54.152;19.432;2022-07-18T06:00:20;102224.42;;;18.52;72.46
66742;BME280;53654;54.152;19.432;2022-07-18T06:02:49;102218.45;;;18.60;72.19
66742;BME280;53654;54.152;19.432;2022-07-18T06:05:19;102217.33;;;18.83;72.15
66742;BME280;53654;54.152;19.432;2022-07-18T06:07:51;102219.77;;;19.28;72.03
66742;BME280;53654;54.152;19.432;2022-07-18T06:10:20;102218.77;;;19.74;71.53
66742;BME280;53654;54.152;19.432;2022-07-18T06:12:49;102214.48;;;19.98;70.00
66742;BME280;53654;54.152;19.432;2022-07-18T06:15:18;102215.14;;;20.07;69.38
66742;BME280;53654;54.152;19.432;2022-07-18T06:17:46;102213.86;;;20.08;68.57
66742;BME280;53654;54.152;19.432;2022-07-18T06:20:15;102213.87;;;20.01;68.57
66742;BME280;53654;54.152;19.432;2022-07-18T06:22:43;102205.70;;;20.02;68.36
66742;BME280;53654;54.152;19.432;2022-07-18T06:25:12;102208.35;;;20.09;68.03
66742;BME280;53654;54.152;19.432;2022-07-18T06:27:40;102206.79;;;20.15;68.14
66742;BME280;53654;54.152;19.432;2022-07-18T06:30:08;102201.95;;;20.24;68.20
66742;BME280;53654;54.152;19.432;2022-07-18T06:32:38;102199.33;;;20.37;67.98
66742;BME280;53654;54.152;19.432;2022-07-18T06:35:07;102195.58;;;20.45;67.62
66742;BME280;53654;54.152;19.432;2022-07-18T06:37:36;102192.46;;;20.62;67.21
66742;BME280;53654;54.152;19.432;2022-07-18T06:40:06;102196.30;;;20.77;66.91
66742;BME280;53654;54.152;19.432;2022-07-18T06:42:35;102195.23;;;20.90;67.03
66742;BME280;53654;54.152;19.432;2022-07-18T06:45:06;102197.91;;;21.09;67.37
66742;BME280;53654;54.152;19.432;2022-07-18T06:47:40;102196.94;;;21.24;65.90
66742;BME280;53654;54.152;19.432;2022-07-18T06:50:10;102194.48;;;21.35;65.40
66742;BME280;53654;54.152;19.432;2022-07-18T06:52:40;102193.64;;;21.50;65.65
66742;BME280;53654;54.152;19.432;2022-07-18T06:55:10;102188.61;;;21.69;64.76
66742;BME280;53654;54.152;19.432;2022-07-18T06:57:40;102190.51;;;21.93;64.41
66742;BME280;53654;54.152;19.432;2022-07-18T07:00:10;102189.46;;;22.14;64.71
66742;BME280;53654;54.152;19.432;2022-07-18T07:02:43;102195.02;;;22.33;64.01
66742;BME280;53654;54.152;19.432;2022-07-18T07:05:13;102190.02;;;22.44;63.04
66742;BME280;53654;54.152;19.432;2022-07-18T07:07:42;102188.96;;;22.49;62.55
66742;BME280;53654;54.152;19.432;2022-07-18T07:10:16;102187.99;;;22.51;61.92
66742;BME280;53654;54.152;19.432;2022-07-18T07:12:47;102186.73;;;22.66;62.08
66742;BME280;53654;54.152;19.432;2022-07-18T07:15:19;102186.52;;;22.83;61.41
66742;BME280;53654;54.152;19.432;2022-07-18T07:17:48;102185.61;;;22.93;61.32
66742;BME280;53654;54.152;19.432;2022-07-18T07:20:17;102188.17;;;23.05;60.98
66742;BME280;53654;54.152;19.432;2022-07-18T07:22:54;102184.66;;;23.13;60.70
66742;BME280;53654;54.152;19.432;2022-07-18T07:25:24;102185.65;;;23.24;60.46
66742;BME280;53654;54.152;19.432;2022-07-18T07:27:53;102185.48;;;23.37;60.09
66742;BME280;53654;54.152;19.432;2022-07-18T07:30:22;102184.67;;;23.59;59.16
66742;BME280;53654;54.152;19.432;2022-07-18T07:32:50;102183.04;;;23.81;58.68
66742;BME280;53654;54.152;19.432;2022-07-18T07:35:19;102181.27;;;24.02;58.38
66742;BME280;53654;54.152;19.432;2022-07-18T07:37:53;102181.82;;;24.15;58.37
66742;BME280;53654;54.152;19.432;2022-07-18T07:40:23;102179.66;;;24.32;57.77
66742;BME280;53654;54.152;19.432;2022-07-18T07:42:57;102177.05;;;24.47;57.48
66742;BME280;53654;54.152;19.432;2022-07-18T07:45:32;102177.92;;;24.55;56.13
66742;BME280;53654;54.152;19.432;2022-07-18T07:48:00;102177.06;;;24.43;55.42
66742;BME280;53654;54.152;19.432;2022-07-18T07:50:28;102177.39;;;24.18;55.66
66742;BME280;53654;54.152;19.432;2022-07-18T07:52:58;102180.16;;;24.03;56.06
66742;BME280;53654;54.152;19.432;2022-07-18T07:55:26;102174.84;;;23.94;56.22
66742;BME280;53654;54.152;19.432;2022-07-18T07:57:56;102177.16;;;23.90;56.11
66742;BME280;53654;54.152;19.432;2022-07-18T08:00:24;102181.10;;;23.89;56.06
66742;BME280;53654;54.152;19.432;2022-07-18T08:03:00;102182.33;;;23.81;55.39
66742;BME280;53654;54.152;19.432;2022-07-18T08:05:33;102181.59;;;23.60;55.33
66742;BME280;53654;54.152;19.432;2022-07-18T08:08:01;102185.31;;;23.33;55.86
66742;BME280;53654;54.152;19.432;2022-07-18T08:10:30;102190.92;;;23.08;57.06
66742;BME280;53654;54.152;19.432;2022-07-18T08:12:59;102190.48;;;22.91;58.24
66742;BME280;53654;54.152;19.432;2022-07-18T08:15:27;102191.21;;;22.80;58.79
66742;BME280;53654;54.152;19.432;2022-07-18T08:17:56;102192.39;;;22.77;59.82
66742;BME280;53654;54.152;19.432;2022-07-18T08:20:24;102195.75;;;22.83;59.85
66742;BME280;53654;54.152;19.432;2022-07-18T08:22:58;102200.36;;;22.84;60.20
66742;BME280;53654;54.152;19.432;2022-07-18T08:25:28;102202.42;;;22.86;60.51
66742;BME280;53654;54.152;19.432;2022-07-18T08:27:57;102207.79;;;22.85;59.73
66742;BME280;53654;54.152;19.432;2022-07-18T08:30:26;102207.46;;;22.84;59.47
66742;BME280;53654;54.152;19.432;2022-07-18T08:32:55;102206.66;;;22.81;59.34
66742;BME280;53654;54.152;19.432;2022-07-18T08:35:24;102202.20;;;22.77;59.33
66742;BME280;53654;54.152;19.432;2022-07-18T08:37:52;102202.30;;;22.69;59.03
66742;BME280;53654;54.152;19.432;2022-07-18T08:40:21;102202.96;;;22.60;59.06
66742;BME280;53654;54.152;19.432;2022-07-18T08:42:51;102206.46;;;22.52;59.64
66742;BME280;53654;54.152;19.432;2022-07-18T08:45:42;102201.70;;;22.36;59.62
66742;BME280;53654;54.152;19.432;2022-07-18T08:48:17;102204.48;;;22.22;59.93
66742;BME280;53654;54.152;19.432;2022-07-18T08:50:47;102207.96;;;22.13;60.37
66742;BME280;53654;54.152;19.432;2022-07-18T08:53:17;102204.39;;;22.03;60.80
66742;BME280;53654;54.152;19.432;2022-07-18T08:55:46;102206.05;;;21.95;61.73
66742;BME280;53654;54.152;19.432;2022-07-18T08:58:15;102207.19;;;21.88;61.59
66742;BME280;53654;54.152;19.432;2022-07-18T09:01:05;102213.08;;;21.76;61.84
66742;BME280;53654;54.152;19.432;2022-07-18T09:03:34;102205.27;;;21.70;61.98
66742;BME280;53654;54.152;19.432;2022-07-18T09:06:20;102206.52;;;21.65;62.11
66742;BME280;53654;54.152;19.432;2022-07-18T09:09:00;102210.60;;;21.53;62.62
66742;BME280;53654;54.152;19.432;2022-07-18T09:11:28;102209.78;;;21.51;62.89
66742;BME280;53654;54.152;19.432;2022-07-18T09:19:32;102211.59;;;21.44;63.10
66742;BME280;53654;54.152;19.432;2022-07-18T09:22:16;102206.98;;;21.44;63.32
66742;BME280;53654;54.152;19.432;2022-07-18T09:30:19;102210.38;;;21.43;64.03
66742;BME280;53654;54.152;19.432;2022-07-18T09:35:34;102213.11;;;21.23;64.11
66742;BME280;53654;54.152;19.432;2022-07-18T09:38:05;102216.48;;;21.10;64.61
66742;BME280;53654;54.152;19.432;2022-07-18T09:43:07;102211.93;;;20.96;66.36
66742;BME280;53654;54.152;19.432;2022-07-18T09:45:55;102213.86;;;20.90;66.46
66742;BME280;53654;54.152;19.432;2022-07-18T09:48:25;102211.35;;;20.78;66.82
66742;BME280;53654;54.152;19.432;2022-07-18T09:51:03;102207.84;;;20.63;66.98
66742;BME280;53654;54.152;19.432;2022-07-18T09:53:38;102210.67;;;20.51;67.39
66742;BME280;53654;54.152;19.432;2022-07-18T09:56:08;102212.54;;;20.40;68.01
66742;BME280;53654;54.152;19.432;2022-07-18T09:58:39;102214.09;;;20.27;68.81
66742;BME280;53654;54.152;19.432;2022-07-18T10:01:09;102212.65;;;20.14;69.70
66742;BME280;53654;54.152;19.432;2022-07-18T10:03:37;102213.09;;;20.11;70.92
66742;BME280;53654;54.152;19.432;2022-07-18T10:06:08;102213.27;;;20.11;71.50
66742;BME280;53654;54.152;19.432;2022-07-18T10:08:37;102213.30;;;20.09;71.31
66742;BME280;53654;54.152;19.432;2022-07-18T10:11:06;102217.73;;;20.09;71.31
66742;BME280;53654;54.152;19.432;2022-07-18T10:13:36;102218.11;;;20.08;71.23
66742;BME280;53654;54.152;19.432;2022-07-18T10:16:05;102220.93;;;20.09;71.25
66742;BME280;53654;54.152;19.432;2022-07-18T10:18:35;102220.25;;;20.08;71.79
66742;BME280;53654;54.152;19.432;2022-07-18T10:21:09;102220.27;;;20.07;71.40
66742;BME280;53654;54.152;19.432;2022-07-18T10:36:36;102220.09;;;20.14;71.40
66742;BME280;53654;54.152;19.432;2022-07-18T10:57:30;102212.95;;;21.22;68.57
66742;BME280;53654;54.152;19.432;2022-07-18T11:00:14;102205.14;;;21.40;68.79
66742;BME280;53654;54.152;19.432;2022-07-18T11:02:45;102205.16;;;21.57;67.86
66742;BME280;53654;54.152;19.432;2022-07-18T11:21:30;102189.71;;;21.45;65.89
66742;BME280;53654;54.152;19.432;2022-07-18T11:24:07;102186.15;;;21.40;65.73
66742;BME280;53654;54.152;19.432;2022-07-18T11:26:46;102191.33;;;21.39;65.95
66742;BME280;53654;54.152;19.432;2022-07-18T11:29:17;102184.05;;;21.39;65.93
66742;BME280;53654;54.152;19.432;2022-07-18T11:31:56;102189.40;;;21.39;65.98
66742;BME280;53654;54.152;19.432;2022-07-18T11:34:26;102193.00;;;21.37;65.97
66742;BME280;53654;54.152;19.432;2022-07-18T11:37:07;102193.02;;;21.36;66.42
66742;BME280;53654;54.152;19.432;2022-07-18T11:39:35;102191.63;;;21.36;66.29
66742;BME280;53654;54.152;19.432;2022-07-18T11:42:04;102188.45;;;21.35;66.43
66742;BME280;53654;54.152;19.432;2022-07-18T11:44:32;102185.71;;;21.37;66.27
66742;BME280;53654;54.152;19.432;2022-07-18T11:47:11;102182.40;;;21.41;66.85
66742;BME280;53654;54.152;19.432;2022-07-18T11:49:40;102181.65;;;21.48;66.65
66742;BME280;53654;54.152;19.432;2022-07-18T11:52:08;102178.84;;;21.52;66.32
66742;BME280;53654;54.152;19.432;2022-07-18T11:54:36;102176.60;;;21.56;65.84
66742;BME280;53654;54.152;19.432;2022-07-18T11:57:04;102178.16;;;21.58;66.01
66742;BME280;53654;54.152;19.432;2022-07-18T11:59:40;102172.38;;;21.55;65.81
66742;BME280;53654;54.152;19.432;2022-07-18T12:02:09;102174.80;;;21.51;65.66
66742;BME280;53654;54.152;19.432;2022-07-18T12:04:38;102172.09;;;21.47;65.96
66742;BME280;53654;54.152;19.432;2022-07-18T12:07:18;102175.02;;;21.44;66.33
66742;BME280;53654;54.152;19.432;2022-07-18T12:09:48;102176.29;;;21.43;66.31
66742;BME280;53654;54.152;19.432;2022-07-18T12:12:18;102171.60;;;21.46;66.65
66742;BME280;53654;54.152;19.432;2022-07-18T12:14:59;102171.34;;;21.54;66.93
66742;BME280;53654;54.152;19.432;2022-07-18T12:17:29;102165.19;;;21.64;66.80
66742;BME280;53654;54.152;19.432;2022-07-18T12:20:15;102162.59;;;21.72;66.20
66742;BME280;53654;54.152;19.432;2022-07-18T12:23:06;102160.55;;;21.80;65.47
66742;BME280;53654;54.152;19.432;2022-07-18T12:25:44;102164.23;;;21.87;65.30
66742;BME280;53654;54.152;19.432;2022-07-18T12:30:41;102160.30;;;21.93;64.70
66742;BME280;53654;54.152;19.432;2022-07-18T12:33:10;102162.74;;;21.94;64.55
66742;BME280;53654;54.152;19.432;2022-07-18T12:35:39;102158.38;;;21.92;64.70
66742;BME280;53654;54.152;19.432;2022-07-18T12:38:11;102155.14;;;21.88;65.06
66742;BME280;53654;54.152;19.432;2022-07-18T12:40:57;102158.69;;;21.83;64.54
66742;BME280;53654;54.152;19.432;2022-07-18T12:46:00;102162.15;;;21.75;65.56
66742;BME280;53654;54.152;19.432;2022-07-18T12:48:30;102161.27;;;21.74;65.20
66742;BME280;53654;54.152;19.432;2022-07-18T12:51:04;102161.45;;;21.74;65.19
66742;BME280;53654;54.152;19.432;2022-07-18T12:53:34;102157.48;;;21.76;65.40
66742;BME280;53654;54.152;19.432;2022-07-18T12:56:04;102157.15;;;21.81;65.19
66742;BME280;53654;54.152;19.432;2022-07-18T12:58:32;102154.14;;;21.86;65.25
66742;BME280;53654;54.152;19.432;2022-07-18T13:01:00;102153.77;;;21.92;64.91
66742;BME280;53654;54.152;19.432;2022-07-18T13:03:34;102152.63;;;21.99;65.24
66742;BME280;53654;54.152;19.432;2022-07-18T13:06:03;102148.67;;;22.06;64.83
66742;BME280;53654;54.152;19.432;2022-07-18T13:08:32;102146.61;;;22.15;64.69
66742;BME280;53654;54.152;19.432;2022-07-18T13:11:00;102142.86;;;22.26;64.34
66742;BME280;53654;54.152;19.432;2022-07-18T13:13:28;102135.67;;;22.37;63.56
66742;BME280;53654;54.152;19.432;2022-07-18T13:15:57;102136.54;;;22.48;63.11
66742;BME280;53654;54.152;19.432;2022-07-18T13:18:25;102134.23;;;22.57;62.75
66742;BME280;53654;54.152;19.432;2022-07-18T13:20:53;102133.80;;;22.60;61.65
66742;BME280;53654;54.152;19.432;2022-07-18T13:23:21;102136.73;;;22.57;61.47
66742;BME280;53654;54.152;19.432;2022-07-18T13:25:49;102134.36;;;22.54;61.49
66742;BME280;53654;54.152;19.432;2022-07-18T13:28:17;102136.36;;;22.53;61.44
66742;BME280;53654;54.152;19.432;2022-07-18T13:30:45;102139.90;;;22.54;61.43
66742;BME280;53654;54.152;19.432;2022-07-18T13:33:13;102140.17;;;22.56;61.67
66742;BME280;53654;54.152;19.432;2022-07-18T13:35:41;102144.69;;;22.59;61.26
66742;BME280;53654;54.152;19.432;2022-07-18T13:38:09;102139.68;;;22.59;60.95
66742;BME280;53654;54.152;19.432;2022-07-18T13:40:38;102139.29;;;22.60;61.12
66742;BME280;53654;54.152;19.432;2022-07-18T13:43:06;102140.03;;;22.60;60.77
66742;BME280;53654;54.152;19.432;2022-07-18T13:45:34;102135.58;;;22.60;60.71
66742;BME280;53654;54.152;19.432;2022-07-18T13:48:02;102133.48;;;22.63;60.83
66742;BME280;53654;54.152;19.432;2022-07-18T13:50:30;102135.63;;;22.68;60.98
66742;BME280;53654;54.152;19.432;2022-07-18T13:52:59;102135.30;;;22.72;60.36
66742;BME280;53654;54.152;19.432;2022-07-18T13:55:27;102134.45;;;22.75;60.29
66742;BME280;53654;54.152;19.432;2022-07-18T13:57:55;102128.63;;;22.79;59.86
66742;BME280;53654;54.152;19.432;2022-07-18T14:00:24;102132.48;;;22.86;59.82
66742;BME280;53654;54.152;19.432;2022-07-18T14:02:52;102142.29;;;22.91;58.95
66742;BME280;53654;54.152;19.432;2022-07-18T14:05:20;102138.85;;;22.92;57.76